Time;durP1;ratioP1;P1;durP2;ratioP2;P2;SDS_P1;SDS_P2;PMS_P1;PMS_P2;Temp;Humidity;BMP_temperature;BMP_pressure;BME280_temperature;BME280_humidity;BME280_pressure;Samples;Min_cycle;Max_cycle;Signal;HPM_P1;HPM_P2
2022/06/06 00:01:13;;;;;;;;;;;14.00;99.90;;;;;;5095978;28;19927;-62
2022/06/06 00:03:40;;;;;;;;;;;14.00;99.90;;;;;;5096718;28;19959;-61
2022/06/06 00:06:10;;;;;;;;;;;14.00;99.90;;;;;;5080683;28;19992;-62
2022/06/06 00:08:36;;;;;;;;;;;14.00;99.90;;;;;;5099450;28;19913;-63
2022/06/06 00:11:04;;;;;;;;;;;14.00;99.90;;;;;;5096968;28;19923;-62
2022/06/06 00:13:30;;;;;;;;;;;14.00;99.90;;;;;;5089617;28;19968;-61
2022/06/06 00:15:56;;;;;;;;;;;13.90;99.90;;;;;;5079503;28;19921;-63
2022/06/06 00:18:21;;;;;;;;;;;13.90;99.90;;;;;;5098649;28;19979;-62
2022/06/06 00:20:47;;;;;;;;;;;14.00;99.90;;;;;;5096091;28;19920;-61
2022/06/06 00:23:13;;;;;;;;;;;14.00;99.90;;;;;;5099939;28;19901;-63
2022/06/06 00:25:38;;;;;;;;;;;14.00;99.90;;;;;;5095976;28;19922;-63
2022/06/06 00:28:04;;;;;;;;;;;14.00;99.90;;;;;;5099258;28;19901;-63
2022/06/06 00:30:29;;;;;;;;;;;14.00;99.90;;;;;;5091662;28;19910;-63
2022/06/06 00:35:39;;;;;;;;;;;13.90;99.90;;;;;;5093711;28;19908;-63
2022/06/06 00:38:05;;;;;;;;;;;13.80;99.90;;;;;;5081490;28;19920;-63
2022/06/06 00:40:30;;;;;;;;;;;13.80;99.90;;;;;;5086252;28;19916;-62
2022/06/06 00:42:56;;;;;;;;;;;13.70;99.90;;;;;;5067158;28;19966;-62
2022/06/06 00:45:32;;;;;;;;;;;13.70;99.90;;;;;;5087057;28;19973;-62
2022/06/06 00:48:10;;;;;;;;;;;13.70;99.90;;;;;;5073967;28;19925;-62
2022/06/06 00:50:42;;;;;;;;;;;13.60;99.90;;;;;;5078833;28;19905;-62
2022/06/06 00:53:09;;;;;;;;;;;13.60;99.90;;;;;;5095402;28;19907;-62
2022/06/06 00:55:38;;;;;;;;;;;13.60;99.90;;;;;;5096184;28;19939;-62
2022/06/06 00:58:05;;;;;;;;;;;13.60;99.90;;;;;;5091808;28;19920;-63
2022/06/06 01:00:31;;;;;;;;;;;13.60;99.90;;;;;;5082690;28;19979;-62
2022/06/06 01:02:59;;;;;;;;;;;13.60;99.90;;;;;;5093755;28;19912;-63
2022/06/06 01:05:25;;;;;;;;;;;13.70;99.90;;;;;;5096837;28;19991;-65
2022/06/06 01:07:51;;;;;;;;;;;13.60;99.90;;;;;;5096035;28;19908;-64
2022/06/06 01:10:17;;;;;;;;;;;13.60;99.90;;;;;;5077091;28;19901;-61
2022/06/06 01:12:43;;;;;;;;;;;13.60;99.90;;;;;;5076431;28;20003;-62
2022/06/06 01:15:10;;;;;;;;;;;13.70;99.90;;;;;;5060415;28;19897;-63
2022/06/06 01:17:42;;;;;;;;;;;13.70;99.90;;;;;;5084117;28;20295;-68
2022/06/06 01:20:26;;;;;;;;;;;13.80;99.90;;;;;;5074087;28;19931;-63
2022/06/06 01:22:55;;;;;;;;;;;13.80;99.90;;;;;;5085051;28;19925;-63
2022/06/06 01:25:20;;;;;;;;;;;13.80;99.90;;;;;;5082509;28;20417;-63
2022/06/06 01:27:46;;;;;;;;;;;13.80;99.90;;;;;;5087052;28;20740;-64
2022/06/06 01:30:17;;;;;;;;;;;13.80;99.90;;;;;;5085413;28;19917;-63
2022/06/06 01:32:45;;;;;;;;;;;13.80;99.90;;;;;;5079728;28;19907;-65
2022/06/06 01:35:11;;;;;;;;;;;13.70;99.90;;;;;;5093301;28;19901;-66
2022/06/06 01:37:41;;;;;;;;;;;13.70;99.90;;;;;;5097254;28;19962;-64
2022/06/06 01:40:12;;;;;;;;;;;13.80;99.90;;;;;;5096490;28;19900;-64
2022/06/06 01:42:48;;;;;;;;;;;13.80;99.90;;;;;;5091862;28;19908;-63
2022/06/06 01:45:19;;;;;;;;;;;13.70;99.90;;;;;;5095664;28;19934;-65
2022/06/06 01:47:50;;;;;;;;;;;13.70;99.90;;;;;;5077965;28;19939;-65
2022/06/06 01:50:16;;;;;;;;;;;13.60;99.90;;;;;;5098108;28;19905;-64
2022/06/06 01:52:52;;;;;;;;;;;13.70;99.90;;;;;;5092356;28;19904;-66
2022/06/06 01:55:19;;;;;;;;;;;13.60;99.90;;;;;;5064913;28;19984;-66
2022/06/06 01:57:45;;;;;;;;;;;13.80;99.90;;;;;;5093225;28;19917;-65
2022/06/06 02:00:11;;;;;;;;;;;13.70;99.90;;;;;;5075287;28;19901;-64
2022/06/06 02:02:41;;;;;;;;;;;13.70;99.90;;;;;;5088925;28;19968;-64
2022/06/06 02:05:07;;;;;;;;;;;13.70;99.90;;;;;;5080953;28;19900;-65
2022/06/06 02:07:33;;;;;;;;;;;13.80;99.90;;;;;;5092447;28;19919;-65
2022/06/06 02:10:01;;;;;;;;;;;13.70;99.90;;;;;;5090585;28;19901;-65
2022/06/06 02:12:27;;;;;;;;;;;13.80;99.90;;;;;;5091496;28;19909;-63
2022/06/06 02:14:52;;;;;;;;;;;13.70;99.90;;;;;;5097152;28;19907;-64
2022/06/06 02:17:18;;;;;;;;;;;13.70;99.90;;;;;;5078944;28;19972;-65
2022/06/06 02:19:43;;;;;;;;;;;13.70;99.90;;;;;;5079009;28;19907;-63
2022/06/06 02:22:09;;;;;;;;;;;13.70;99.90;;;;;;5071315;28;19995;-64
2022/06/06 02:24:35;;;;;;;;;;;13.60;99.90;;;;;;5085517;28;19928;-64
2022/06/06 02:27:00;;;;;;;;;;;13.60;99.90;;;;;;5090503;28;19908;-64
2022/06/06 02:29:26;;;;;;;;;;;13.60;99.90;;;;;;5090585;28;19980;-64
2022/06/06 02:31:51;;;;;;;;;;;13.60;99.90;;;;;;5096836;28;19904;-64
2022/06/06 02:34:17;;;;;;;;;;;13.50;99.90;;;;;;5097125;28;19904;-64
2022/06/06 02:36:42;;;;;;;;;;;13.50;99.90;;;;;;5096515;28;19905;-64
2022/06/06 02:39:08;;;;;;;;;;;13.50;99.90;;;;;;5097473;28;19923;-65
2022/06/06 02:41:34;;;;;;;;;;;13.40;99.90;;;;;;5094346;28;19908;-64
2022/06/06 02:43:59;;;;;;;;;;;13.50;99.90;;;;;;5087523;28;19946;-63
2022/06/06 02:46:25;;;;;;;;;;;13.50;99.90;;;;;;5088345;28;19919;-64
2022/06/06 02:48:51;;;;;;;;;;;13.50;99.90;;;;;;5093251;28;19934;-65
2022/06/06 02:51:16;;;;;;;;;;;13.40;99.90;;;;;;5094912;28;19908;-65
2022/06/06 02:53:42;;;;;;;;;;;13.40;99.90;;;;;;5090209;28;19905;-64
2022/06/06 02:56:07;;;;;;;;;;;13.40;99.90;;;;;;5096594;28;19915;-63
2022/06/06 02:58:33;;;;;;;;;;;13.40;99.90;;;;;;5095295;28;19907;-64
2022/06/06 03:01:00;;;;;;;;;;;13.50;99.90;;;;;;5092833;28;19904;-64
2022/06/06 03:03:26;;;;;;;;;;;13.60;99.90;;;;;;5071746;28;19912;-63
2022/06/06 03:05:57;;;;;;;;;;;13.50;99.90;;;;;;5086831;28;19908;-63
2022/06/06 03:08:34;;;;;;;;;;;13.40;99.90;;;;;;5100884;28;19896;-64
2022/06/06 03:11:12;;;;;;;;;;;13.40;99.90;;;;;;5080517;28;19901;-64
2022/06/06 03:14:04;;;;;;;;;;;13.30;99.90;;;;;;5101310;28;19926;-63
2022/06/06 03:22:21;;;;;;;;;;;13.40;99.90;;;;;;5097753;28;19923;-65
2022/06/06 03:25:02;;;;;;;;;;;13.30;99.90;;;;;;5088411;28;19900;-64
2022/06/06 03:27:36;;;;;;;;;;;13.40;99.90;;;;;;5094760;28;19908;-64
2022/06/06 03:30:14;;;;;;;;;;;13.40;99.90;;;;;;5100510;28;19928;-64
2022/06/06 03:32:44;;;;;;;;;;;13.40;99.90;;;;;;5081452;28;19968;-65
2022/06/06 03:35:10;;;;;;;;;;;13.40;99.90;;;;;;5086937;28;19908;-64
2022/06/06 03:37:38;;;;;;;;;;;13.40;99.90;;;;;;5097966;28;19900;-63
2022/06/06 03:40:16;;;;;;;;;;;13.50;99.90;;;;;;5097605;28;19932;-65
2022/06/06 03:43:06;;;;;;;;;;;13.40;99.90;;;;;;5082148;28;19911;-63
2022/06/06 03:45:40;;;;;;;;;;;13.40;99.90;;;;;;5097990;28;19928;-65
2022/06/06 03:48:09;;;;;;;;;;;13.40;99.90;;;;;;5100913;28;19921;-65
2022/06/06 03:50:42;;;;;;;;;;;13.40;99.90;;;;;;5088328;28;19970;-65
2022/06/06 03:53:12;;;;;;;;;;;13.30;99.90;;;;;;5096908;28;19915;-64
2022/06/06 03:55:44;;;;;;;;;;;13.30;99.90;;;;;;5079938;28;19920;-64
2022/06/06 03:58:12;;;;;;;;;;;13.40;99.90;;;;;;5096865;28;19923;-63
2022/06/06 04:00:38;;;;;;;;;;;13.40;99.90;;;;;;5081058;28;19901;-64
2022/06/06 04:03:05;;;;;;;;;;;13.30;99.90;;;;;;5091684;28;19908;-65
2022/06/06 04:05:34;;;;;;;;;;;13.40;99.90;;;;;;5093733;28;19923;-65
2022/06/06 04:08:00;;;;;;;;;;;13.40;99.90;;;;;;5095164;28;19923;-64
2022/06/06 04:10:32;;;;;;;;;;;13.40;99.90;;;;;;5094459;28;19905;-65
2022/06/06 04:13:04;;;;;;;;;;;13.50;99.90;;;;;;5096915;28;19927;-64
2022/06/06 04:15:48;;;;;;;;;;;13.60;99.90;;;;;;5090700;28;19913;-64
2022/06/06 04:18:14;;;;;;;;;;;13.60;99.90;;;;;;5096857;28;19900;-64
2022/06/06 04:20:51;;;;;;;;;;;13.60;99.90;;;;;;5087880;28;19912;-65
2022/06/06 04:23:17;;;;;;;;;;;13.60;99.90;;;;;;5099179;28;19941;-64
2022/06/06 04:25:45;;;;;;;;;;;13.60;99.90;;;;;;5096571;28;19916;-63
2022/06/06 04:28:11;;;;;;;;;;;13.60;99.90;;;;;;5097396;28;19908;-64
2022/06/06 04:30:45;;;;;;;;;;;13.60;99.90;;;;;;5098636;28;19905;-64
2022/06/06 04:33:23;;;;;;;;;;;13.70;99.90;;;;;;5080104;28;19910;-64
2022/06/06 04:35:55;;;;;;;;;;;13.60;99.90;;;;;;5075093;28;19928;-64
2022/06/06 04:38:26;;;;;;;;;;;13.70;99.90;;;;;;5093373;28;19912;-63
2022/06/06 04:41:18;;;;;;;;;;;13.70;99.90;;;;;;5088622;28;19901;-64
2022/06/06 04:43:53;;;;;;;;;;;13.60;99.90;;;;;;5054507;28;19912;-66
2022/06/06 04:46:23;;;;;;;;;;;13.70;99.90;;;;;;5093343;28;19908;-62
2022/06/06 04:48:50;;;;;;;;;;;13.60;99.90;;;;;;5083841;28;19920;-64
2022/06/06 04:51:17;;;;;;;;;;;13.40;99.90;;;;;;5076501;28;19971;-63
2022/06/06 04:53:44;;;;;;;;;;;13.60;99.90;;;;;;5094450;28;20814;-63
2022/06/06 04:56:14;;;;;;;;;;;13.70;99.90;;;;;;5092581;28;19912;-64
2022/06/06 04:58:41;;;;;;;;;;;13.70;99.90;;;;;;5095773;28;19943;-64
2022/06/06 05:01:07;;;;;;;;;;;13.70;99.90;;;;;;5078543;28;19924;-63
2022/06/06 05:03:33;;;;;;;;;;;13.70;99.90;;;;;;5077987;28;19916;-64
2022/06/06 05:06:08;;;;;;;;;;;13.80;99.90;;;;;;5079492;28;19920;-64
2022/06/06 05:08:52;;;;;;;;;;;13.90;99.90;;;;;;5098427;28;19912;-64
2022/06/06 05:11:23;;;;;;;;;;;13.90;99.90;;;;;;5083106;28;19916;-64
2022/06/06 05:13:58;;;;;;;;;;;13.90;99.90;;;;;;5079010;28;19946;-64
2022/06/06 05:16:42;;;;;;;;;;;13.90;99.90;;;;;;5079410;28;19956;-63
2022/06/06 05:19:27;;;;;;;;;;;14.00;99.90;;;;;;5096972;28;19923;-65
2022/06/06 05:22:05;;;;;;;;;;;13.90;99.90;;;;;;5097401;28;19939;-64
2022/06/06 05:24:46;;;;;;;;;;;14.00;99.90;;;;;;5078295;28;19923;-64
2022/06/06 05:27:30;;;;;;;;;;;14.00;99.90;;;;;;5074270;28;19924;-65
2022/06/06 05:30:02;;;;;;;;;;;14.00;99.90;;;;;;5098353;28;19901;-64
2022/06/06 05:32:49;;;;;;;;;;;14.10;99.90;;;;;;5097661;28;19923;-64
2022/06/06 05:35:21;;;;;;;;;;;14.10;99.90;;;;;;5089741;28;19904;-64
2022/06/06 05:38:05;;;;;;;;;;;14.00;99.90;;;;;;5079179;28;19920;-64
2022/06/06 05:40:39;;;;;;;;;;;14.00;99.90;;;;;;5088711;28;19903;-64
2022/06/06 05:43:05;;;;;;;;;;;13.90;99.90;;;;;;5095535;28;19915;-65
2022/06/06 05:45:38;;;;;;;;;;;14.10;99.90;;;;;;5091769;28;20395;-64
2022/06/06 05:48:11;;;;;;;;;;;14.10;99.90;;;;;;5071550;28;19925;-65
2022/06/06 05:50:52;;;;;;;;;;;14.30;99.90;;;;;;5088688;28;19913;-64
2022/06/06 05:53:21;;;;;;;;;;;14.30;99.90;;;;;;5092529;28;20300;-63
2022/06/06 05:56:02;;;;;;;;;;;14.30;99.90;;;;;;5086435;28;19923;-65
2022/06/06 05:58:36;;;;;;;;;;;14.40;99.90;;;;;;5084421;28;19900;-63
2022/06/06 06:01:08;;;;;;;;;;;14.50;99.90;;;;;;5095894;28;19950;-64
2022/06/06 06:03:52;;;;;;;;;;;14.50;99.90;;;;;;5093053;28;19904;-65
2022/06/06 06:06:19;;;;;;;;;;;14.50;99.90;;;;;;5097311;28;19920;-64
2022/06/06 06:08:55;;;;;;;;;;;14.50;99.90;;;;;;5066200;28;19905;-65
2022/06/06 06:11:30;;;;;;;;;;;14.60;99.90;;;;;;5092185;28;19923;-64
2022/06/06 06:13:55;;;;;;;;;;;14.60;99.90;;;;;;5087336;28;20790;-65
2022/06/06 06:16:23;;;;;;;;;;;14.70;99.90;;;;;;5095233;28;19904;-65
2022/06/06 06:19:15;;;;;;;;;;;14.70;99.90;;;;;;5097429;28;19988;-64
2022/06/06 06:21:43;;;;;;;;;;;14.70;99.90;;;;;;5087310;28;19904;-64
2022/06/06 06:24:09;;;;;;;;;;;14.60;99.90;;;;;;5087724;28;19907;-63
2022/06/06 06:26:36;;;;;;;;;;;14.60;99.90;;;;;;5091250;28;19924;-64
2022/06/06 06:29:03;;;;;;;;;;;14.50;99.90;;;;;;5094255;28;19935;-64
2022/06/06 06:31:41;;;;;;;;;;;14.40;99.90;;;;;;5088929;28;19944;-65
2022/06/06 06:34:16;;;;;;;;;;;14.40;99.90;;;;;;5084504;28;19920;-64
2022/06/06 06:36:46;;;;;;;;;;;14.30;99.90;;;;;;5074608;28;19920;-64
2022/06/06 06:39:30;;;;;;;;;;;14.20;99.90;;;;;;5080154;28;19951;-63
2022/06/06 06:42:04;;;;;;;;;;;14.20;99.90;;;;;;5064118;28;19913;-64
2022/06/06 06:44:33;;;;;;;;;;;14.40;99.90;;;;;;5085178;28;19979;-63
2022/06/06 06:47:05;;;;;;;;;;;14.40;99.90;;;;;;5072974;28;20433;-65
2022/06/06 06:49:36;;;;;;;;;;;14.40;99.90;;;;;;5073878;28;20377;-64
2022/06/06 06:52:21;;;;;;;;;;;14.30;99.90;;;;;;5083603;28;19928;-65
2022/06/06 06:54:49;;;;;;;;;;;14.40;99.90;;;;;;5088430;28;19912;-64
2022/06/06 06:57:17;;;;;;;;;;;14.50;99.90;;;;;;5075545;28;20015;-63
2022/06/06 06:59:52;;;;;;;;;;;14.60;99.90;;;;;;5090530;28;19930;-66
2022/06/06 07:11:09;;;;;;;;;;;14.50;99.90;;;;;;5092277;28;19966;-64
2022/06/06 07:13:50;;;;;;;;;;;14.80;99.90;;;;;;5092847;28;19912;-64
2022/06/06 07:16:24;;;;;;;;;;;15.00;99.90;;;;;;5073965;28;19908;-64
2022/06/06 07:18:52;;;;;;;;;;;15.10;99.90;;;;;;5076345;28;19963;-63
2022/06/06 07:21:48;;;;;;;;;;;15.00;99.90;;;;;;5073839;28;19923;-64
2022/06/06 07:24:23;;;;;;;;;;;14.80;99.90;;;;;;5073734;28;19905;-64
2022/06/06 07:26:49;;;;;;;;;;;14.90;99.90;;;;;;5089941;28;19915;-64
2022/06/06 07:29:17;;;;;;;;;;;15.10;99.90;;;;;;5074624;28;19923;-64
2022/06/06 07:32:05;;;;;;;;;;;15.00;99.90;;;;;;5073468;28;20163;-65
2022/06/06 07:34:39;;;;;;;;;;;14.80;99.90;;;;;;5091375;28;19912;-64
2022/06/06 07:37:24;;;;;;;;;;;14.80;99.90;;;;;;5074958;28;19917;-64
2022/06/06 07:40:09;;;;;;;;;;;15.00;99.90;;;;;;5081209;28;19917;-66
2022/06/06 07:42:54;;;;;;;;;;;15.30;99.90;;;;;;5079353;28;20042;-63
2022/06/06 07:45:30;;;;;;;;;;;15.50;99.90;;;;;;5084884;28;19916;-65
2022/06/06 07:48:02;;;;;;;;;;;15.70;99.90;;;;;;5085304;28;20308;-66
2022/06/06 07:50:41;;;;;;;;;;;15.60;99.90;;;;;;5075721;28;20496;-66
2022/06/06 07:53:18;;;;;;;;;;;15.70;99.90;;;;;;5065397;28;19919;-67
2022/06/06 07:55:59;;;;;;;;;;;15.90;99.90;;;;;;5043966;28;20366;-64
2022/06/06 07:58:30;;;;;;;;;;;16.00;99.90;;;;;;5043620;28;19916;-63
2022/06/06 08:01:03;;;;;;;;;;;16.10;99.90;;;;;;5056029;28;19997;-63
2022/06/06 08:03:48;;;;;;;;;;;16.10;99.90;;;;;;5044734;28;19920;-64
2022/06/06 08:06:29;;;;;;;;;;;16.10;99.90;;;;;;5070261;28;21066;-64
2022/06/06 08:09:04;;;;;;;;;;;16.20;99.90;;;;;;5067898;28;20264;-64
2022/06/06 08:11:48;;;;;;;;;;;16.10;99.90;;;;;;5048131;28;19995;-65
2022/06/06 08:14:17;;;;;;;;;;;16.10;99.90;;;;;;5059976;28;19912;-66
2022/06/06 08:17:06;;;;;;;;;;;16.10;99.90;;;;;;5049108;28;20378;-65
2022/06/06 08:19:33;;;;;;;;;;;16.00;99.90;;;;;;5063775;28;19917;-64
2022/06/06 08:21:59;;;;;;;;;;;16.00;99.90;;;;;;5061803;28;19959;-65
2022/06/06 08:24:25;;;;;;;;;;;16.00;99.90;;;;;;5069027;28;19917;-64
2022/06/06 08:26:51;;;;;;;;;;;16.10;99.90;;;;;;5049803;28;19982;-65
2022/06/06 08:29:20;;;;;;;;;;;16.20;99.90;;;;;;5066866;28;19940;-65
2022/06/06 08:31:47;;;;;;;;;;;16.50;99.90;;;;;;5061723;28;19959;-64
2022/06/06 08:34:16;;;;;;;;;;;16.60;99.90;;;;;;5045945;28;19955;-65
2022/06/06 08:36:57;;;;;;;;;;;16.90;99.90;;;;;;5070706;28;20016;-66
2022/06/06 08:39:46;;;;;;;;;;;17.00;99.90;;;;;;5068652;28;19924;-65
2022/06/06 08:42:29;;;;;;;;;;;17.30;99.90;;;;;;5042422;28;19923;-65
2022/06/06 08:45:05;;;;;;;;;;;17.20;99.90;;;;;;5059962;28;19961;-64
2022/06/06 08:47:30;;;;;;;;;;;17.00;99.90;;;;;;5059633;28;20007;-66
2022/06/06 08:52:40;;;;;;;;;;;17.10;99.90;;;;;;5063628;28;19936;-66
2022/06/06 08:55:28;;;;;;;;;;;16.90;99.90;;;;;;5048585;28;19913;-65
2022/06/06 08:58:06;;;;;;;;;;;17.00;99.90;;;;;;5069189;28;19912;-65
2022/06/06 09:00:34;;;;;;;;;;;17.00;99.90;;;;;;5047528;28;19919;-65
2022/06/06 09:03:07;;;;;;;;;;;17.10;99.90;;;;;;5069472;28;19927;-66
2022/06/06 09:05:35;;;;;;;;;;;17.00;99.90;;;;;;5072843;28;20073;-66
2022/06/06 09:08:21;;;;;;;;;;;16.80;99.90;;;;;;5066791;28;20005;-65
2022/06/06 09:10:49;;;;;;;;;;;16.70;99.90;;;;;;5052366;28;19917;-65
2022/06/06 09:13:24;;;;;;;;;;;16.70;99.90;;;;;;5069829;28;19916;-65
2022/06/06 09:16:04;;;;;;;;;;;16.30;99.90;;;;;;5065276;28;19936;-66
2022/06/06 09:18:31;;;;;;;;;;;16.10;99.90;;;;;;5066639;28;19994;-66
2022/06/06 09:21:12;;;;;;;;;;;16.00;99.90;;;;;;5050172;28;20030;-66
2022/06/06 09:24:01;;;;;;;;;;;16.00;99.90;;;;;;5065180;28;22090;-64
2022/06/06 09:26:41;;;;;;;;;;;16.00;99.90;;;;;;5062978;28;19924;-65
2022/06/06 09:29:10;;;;;;;;;;;15.90;99.90;;;;;;5068964;28;19917;-65
2022/06/06 09:31:47;;;;;;;;;;;15.90;99.90;;;;;;5066426;28;19970;-64
2022/06/06 09:34:35;;;;;;;;;;;16.00;99.90;;;;;;5060867;28;19917;-65
2022/06/06 09:37:00;;;;;;;;;;;16.10;99.90;;;;;;5062491;28;19991;-65
2022/06/06 09:39:29;;;;;;;;;;;16.40;99.90;;;;;;5067243;28;20346;-65
2022/06/06 09:42:27;;;;;;;;;;;16.60;99.90;;;;;;5068696;28;20350;-66
2022/06/06 09:44:59;;;;;;;;;;;16.90;99.90;;;;;;5023761;28;19919;-65
2022/06/06 09:47:51;;;;;;;;;;;17.30;99.90;;;;;;5049548;28;20020;-66
2022/06/06 09:50:22;;;;;;;;;;;17.70;99.90;;;;;;5032125;28;19919;-67
2022/06/06 09:53:17;;;;;;;;;;;18.00;99.90;;;;;;5070540;28;20351;-66
2022/06/06 09:59:03;;;;;;;;;;;18.40;99.90;;;;;;5067644;28;19924;-65
2022/06/06 10:01:33;;;;;;;;;;;18.50;99.90;;;;;;5066531;28;19913;-65
2022/06/06 10:04:04;;;;;;;;;;;18.30;99.90;;;;;;5073950;28;19913;-64
2022/06/06 10:06:30;;;;;;;;;;;18.10;99.90;;;;;;5083330;28;19917;-64
2022/06/06 10:09:14;;;;;;;;;;;18.00;99.90;;;;;;5072976;28;19923;-63
2022/06/06 10:11:40;;;;;;;;;;;18.00;99.90;;;;;;5078996;28;19990;-64
2022/06/06 10:14:11;;;;;;;;;;;17.90;99.90;;;;;;5072011;28;20365;-67
2022/06/06 10:16:43;;;;;;;;;;;18.10;99.90;;;;;;5056887;28;20366;-66
2022/06/06 10:19:18;;;;;;;;;;;18.30;99.90;;;;;;5077882;28;20193;-65
2022/06/06 10:21:50;;;;;;;;;;;18.60;99.90;;;;;;5084477;28;19943;-64
2022/06/06 10:24:19;;;;;;;;;;;18.90;99.90;;;;;;5082956;28;19916;-65
2022/06/06 10:26:57;;;;;;;;;;;18.90;99.90;;;;;;5083472;28;19982;-63
2022/06/06 10:29:23;;;;;;;;;;;19.00;99.90;;;;;;5071271;28;19912;-65
2022/06/06 10:31:48;;;;;;;;;;;19.00;99.90;;;;;;5091092;28;19905;-66
2022/06/06 10:34:33;;;;;;;;;;;19.50;99.90;;;;;;5090393;28;19905;-65
2022/06/06 10:37:00;;;;;;;;;;;19.30;99.90;;;;;;5079161;28;19904;-65
2022/06/06 10:39:45;;;;;;;;;;;19.20;99.90;;;;;;5088554;28;20275;-66
2022/06/06 10:42:36;;;;;;;;;;;19.10;99.90;;;;;;5074268;28;20434;-66
2022/06/06 10:45:22;;;;;;;;;;;18.60;99.90;;;;;;5069735;28;19917;-66
2022/06/06 10:47:57;;;;;;;;;;;18.10;99.90;;;;;;5065907;28;19924;-66
2022/06/06 10:50:28;;;;;;;;;;;17.60;99.90;;;;;;5066676;28;19919;-68
2022/06/06 10:53:29;;;;;;;;;;;17.70;99.90;;;;;;5066279;28;20271;-66
2022/06/06 10:56:15;;;;;;;;;;;17.50;99.90;;;;;;4986759;28;19914;-67
2022/06/06 10:59:13;;;;;;;;;;;17.90;99.90;;;;;;5006864;28;19951;-66
2022/06/06 11:01:50;;;;;;;;;;;18.20;99.90;;;;;;5064860;28;20290;-66
2022/06/06 11:04:16;;;;;;;;;;;18.20;99.90;;;;;;5044076;28;20008;-67
2022/06/06 11:07:00;;;;;;;;;;;18.40;99.90;;;;;;5044343;28;20413;-67
2022/06/06 11:09:45;;;;;;;;;;;18.50;99.90;;;;;;5043726;28;19925;-66
2022/06/06 11:12:13;;;;;;;;;;;18.50;99.90;;;;;;5068631;28;19908;-66
2022/06/06 11:14:40;;;;;;;;;;;18.70;99.90;;;;;;5047823;28;20454;-66
2022/06/06 11:17:24;;;;;;;;;;;18.70;99.90;;;;;;5071621;28;19984;-65
2022/06/06 11:19:53;;;;;;;;;;;18.80;99.90;;;;;;5055195;28;19923;-66
2022/06/06 11:22:18;;;;;;;;;;;18.80;99.90;;;;;;5059868;28;19913;-66
2022/06/06 11:24:55;;;;;;;;;;;19.00;99.90;;;;;;5056754;28;19920;-66
2022/06/06 11:27:30;;;;;;;;;;;18.90;99.90;;;;;;5053676;28;19970;-67
2022/06/06 11:30:11;;;;;;;;;;;18.60;99.90;;;;;;5063150;28;20188;-65
2022/06/06 11:32:37;;;;;;;;;;;18.30;99.90;;;;;;5074854;28;19920;-64
2022/06/06 11:35:15;;;;;;;;;;;18.10;99.90;;;;;;5059789;28;19939;-64
2022/06/06 11:37:52;;;;;;;;;;;18.00;99.90;;;;;;5080473;28;19927;-64
2022/06/06 11:40:21;;;;;;;;;;;18.10;99.90;;;;;;5081346;28;19925;-64
2022/06/06 11:42:50;;;;;;;;;;;18.10;99.90;;;;;;5088957;28;19935;-65
2022/06/06 11:45:43;;;;;;;;;;;18.30;99.90;;;;;;5087033;28;19912;-64
2022/06/06 11:48:31;;;;;;;;;;;18.40;99.90;;;;;;5051201;28;19922;-65
2022/06/06 11:51:14;;;;;;;;;;;18.30;99.90;;;;;;5083424;28;20348;-65
2022/06/06 11:53:59;;;;;;;;;;;18.50;99.90;;;;;;5052044;28;19917;-64
2022/06/06 11:56:36;;;;;;;;;;;18.50;99.90;;;;;;5073656;28;19944;-64
2022/06/06 11:59:04;;;;;;;;;;;18.80;99.90;;;;;;5064276;28;19920;-66
2022/06/06 12:01:49;;;;;;;;;;;18.80;99.90;;;;;;5044244;28;19913;-66
2022/06/06 12:04:15;;;;;;;;;;;18.90;99.90;;;;;;5071242;28;19912;-66
2022/06/06 12:06:52;;;;;;;;;;;18.90;99.90;;;;;;5049546;28;19932;-65
2022/06/06 12:09:39;;;;;;;;;;;18.80;99.90;;;;;;5060188;28;19981;-65
2022/06/06 12:12:24;;;;;;;;;;;19.00;99.90;;;;;;5058812;28;19973;-65
2022/06/06 12:15:08;;;;;;;;;;;18.90;99.90;;;;;;5079331;28;19913;-65
2022/06/06 12:17:42;;;;;;;;;;;18.80;99.90;;;;;;5049855;28;20282;-67
2022/06/06 12:20:26;;;;;;;;;;;18.80;99.90;;;;;;5080077;28;19947;-66
2022/06/06 12:23:02;;;;;;;;;;;18.70;99.90;;;;;;5083752;28;19905;-65
2022/06/06 12:25:46;;;;;;;;;;;18.70;99.90;;;;;;5077301;28;19966;-65
2022/06/06 12:28:30;;;;;;;;;;;18.80;99.90;;;;;;5065638;28;20291;-67
2022/06/06 12:30:59;;;;;;;;;;;18.80;99.90;;;;;;5066809;28;20267;-67
2022/06/06 12:33:30;;;;;;;;;;;18.70;99.90;;;;;;5063983;28;19916;-66
2022/06/06 12:36:17;;;;;;;;;;;18.90;99.90;;;;;;5067584;28;19916;-65
2022/06/06 12:38:43;;;;;;;;;;;18.80;99.90;;;;;;5067375;28;19913;-67
2022/06/06 12:41:22;;;;;;;;;;;18.90;99.90;;;;;;5063811;28;19919;-67
2022/06/06 12:44:02;;;;;;;;;;;18.90;99.90;;;;;;5060339;28;20401;-65
2022/06/06 12:46:33;;;;;;;;;;;18.80;99.90;;;;;;5063922;28;19924;-66
2022/06/06 12:49:07;;;;;;;;;;;18.60;99.90;;;;;;5066602;28;19974;-66
2022/06/06 12:51:52;;;;;;;;;;;18.40;99.90;;;;;;5065314;28;19916;-66
2022/06/06 12:57:38;;;;;;;;;;;18.40;99.90;;;;;;5066085;28;20343;-67
2022/06/06 13:00:06;;;;;;;;;;;18.40;99.90;;;;;;5066895;28;19916;-66
2022/06/06 13:02:50;;;;;;;;;;;18.50;99.90;;;;;;5065227;28;19962;-65
2022/06/06 13:05:25;;;;;;;;;;;18.50;99.90;;;;;;5068492;28;19920;-66
2022/06/06 13:07:56;;;;;;;;;;;18.50;99.90;;;;;;5049750;28;20024;-67
2022/06/06 13:10:23;;;;;;;;;;;18.50;99.90;;;;;;5050692;28;19962;-66
2022/06/06 13:12:48;;;;;;;;;;;18.70;99.90;;;;;;5069771;28;19912;-66
2022/06/06 13:15:20;;;;;;;;;;;18.60;99.90;;;;;;5050099;28;19913;-67
2022/06/06 13:18:14;;;;;;;;;;;18.70;99.90;;;;;;5061426;28;20660;-65
2022/06/06 13:20:43;;;;;;;;;;;18.80;99.90;;;;;;5064203;28;19944;-66
2022/06/06 13:23:15;;;;;;;;;;;18.80;99.90;;;;;;5045636;28;19943;-65
2022/06/06 13:25:53;;;;;;;;;;;18.70;99.90;;;;;;5050101;28;19965;-65
2022/06/06 13:28:22;;;;;;;;;;;18.60;99.90;;;;;;5066842;28;20028;-66
2022/06/06 13:30:47;;;;;;;;;;;18.70;99.90;;;;;;5048718;28;19912;-67
2022/06/06 13:33:25;;;;;;;;;;;18.60;99.90;;;;;;5048199;28;19916;-65
2022/06/06 13:35:53;;;;;;;;;;;18.60;99.90;;;;;;5068886;28;19912;-65
2022/06/06 13:38:32;;;;;;;;;;;18.80;99.90;;;;;;5065935;28;19931;-67
2022/06/06 13:41:14;;;;;;;;;;;19.10;99.90;;;;;;5057330;28;20476;-66
2022/06/06 13:43:45;;;;;;;;;;;19.40;99.90;;;;;;5050385;28;20004;-66
2022/06/06 13:46:30;;;;;;;;;;;19.70;99.90;;;;;;5061413;28;19940;-67
2022/06/06 13:49:02;;;;;;;;;;;19.80;99.90;;;;;;5063512;28;20367;-65
2022/06/06 13:51:46;;;;;;;;;;;19.60;99.90;;;;;;5064099;28;19912;-66
2022/06/06 13:54:30;;;;;;;;;;;19.50;99.90;;;;;;5063638;28;19951;-67
2022/06/06 13:57:14;;;;;;;;;;;19.90;99.90;;;;;;5064918;28;19919;-66
2022/06/06 13:59:46;;;;;;;;;;;20.20;99.90;;;;;;5063447;28;19923;-66
2022/06/06 14:02:30;;;;;;;;;;;20.30;99.90;;;;;;5062560;28;19912;-66
2022/06/06 14:04:56;;;;;;;;;;;20.60;99.90;;;;;;5068278;28;19934;-67
2022/06/06 14:07:33;;;;;;;;;;;20.90;99.90;;;;;;5045880;28;19929;-68
2022/06/06 14:09:59;;;;;;;;;;;21.20;99.90;;;;;;5064892;28;19912;-65
2022/06/06 14:12:49;;;;;;;;;;;21.30;99.90;;;;;;5075535;28;19917;-64
2022/06/06 14:15:16;;;;;;;;;;;21.20;99.90;;;;;;5078656;28;19966;-64
2022/06/06 14:17:46;;;;;;;;;;;21.20;99.90;;;;;;5070714;28;20004;-63
2022/06/06 14:20:20;;;;;;;;;;;21.30;99.90;;;;;;5074181;28;20399;-64
2022/06/06 14:22:46;;;;;;;;;;;21.00;99.90;;;;;;5062172;28;19959;-67
2022/06/06 14:25:12;;;;;;;;;;;21.10;99.90;;;;;;5066170;28;19951;-67
2022/06/06 14:27:38;;;;;;;;;;;21.20;99.90;;;;;;5052660;28;20028;-65
2022/06/06 14:30:08;;;;;;;;;;;21.30;99.90;;;;;;5073069;28;19924;-66
2022/06/06 14:32:46;;;;;;;;;;;21.30;99.90;;;;;;5072316;28;19976;-64
2022/06/06 14:35:23;;;;;;;;;;;21.20;99.90;;;;;;5076043;28;19913;-67
2022/06/06 14:37:48;;;;;;;;;;;21.30;99.90;;;;;;5061587;28;19957;-67
2022/06/06 14:40:33;;;;;;;;;;;21.60;99.70;;;;;;5061815;28;20567;-66
2022/06/06 14:42:58;;;;;;;;;;;21.70;99.10;;;;;;5066345;28;19940;-65
2022/06/06 14:45:30;;;;;;;;;;;21.70;98.40;;;;;;5067843;28;20264;-66
2022/06/06 14:48:02;;;;;;;;;;;21.40;98.90;;;;;;5060077;28;19984;-66
2022/06/06 14:50:46;;;;;;;;;;;21.40;99.00;;;;;;5060582;28;19935;-65
2022/06/06 14:53:20;;;;;;;;;;;21.70;98.20;;;;;;5059078;28;20274;-64
2022/06/06 14:55:47;;;;;;;;;;;22.00;97.60;;;;;;5061682;28;21061;-64
2022/06/06 14:58:14;;;;;;;;;;;22.30;97.20;;;;;;5061697;28;19921;-66
2022/06/06 15:00:54;;;;;;;;;;;22.40;96.00;;;;;;5059627;28;20369;-65
2022/06/06 15:03:32;;;;;;;;;;;22.50;95.70;;;;;;5072953;28;19928;-65
2022/06/06 15:06:17;;;;;;;;;;;22.70;95.80;;;;;;5065608;28;20342;-65
2022/06/06 15:09:02;;;;;;;;;;;22.90;95.20;;;;;;5047721;28;20290;-65
2022/06/06 15:11:30;;;;;;;;;;;23.40;94.80;;;;;;5046584;28;20390;-65
2022/06/06 15:14:01;;;;;;;;;;;23.40;93.50;;;;;;5069223;28;20158;-64
2022/06/06 15:16:30;;;;;;;;;;;23.30;93.00;;;;;;5069405;28;19928;-63
2022/06/06 15:18:56;;;;;;;;;;;23.10;93.60;;;;;;5064145;28;19913;-65